ESMX

Details ICAO ESMX (VXO)
Name Vaxjo Kronoberg
Region Sweden
Timezone Europe/Stockholm (UTC+1.0)
Plans Departing 21
Arriving 18
Stats Elevation 610 ft / 186 m (AMSL)
Location 56.929144° 14.727993°
Runways 1
Magnetic Variation 4.545° E
Sunrise 2017-12-16 07:35:10 UTC / 2017-12-16 08:35:10 Local
Sunset 2017-12-16 14:21:00 UTC / 2017-12-16 15:21:00 Local
Advertisement - Login to hide

Runways

ID Width Length Bearing (true) Bearing (mag) Surface Threshold Offset Overrun Length
01 148 ft / 45 m 6,894 ft / 2,101 m 13.03° 8.48° Asphalt 0 ft / 0 m 0 ft / 0 m
19 148 ft / 45 m 6,894 ft / 2,101 m 193.04° 188.49° Asphalt 0 ft / 0 m 0 ft / 0 m

Approach Navaids

Runway Type Ident Frequency Range Bearing (true) Bearing (mag) Slope Elevation
01 Localiser SMX 109.10 MHz 18 nm / 33 km 13.03° 8.48° - 610 ft / 186 m (AMSL)
19 Localiser MX 109.70 MHz 18 nm / 33 km 193.00° 188.46° - 610 ft / 186 m (AMSL)
19 Glidescope MX 109.70 MHz 10 nm / 19 km 193.03° 188.49° 2.86° 610 ft / 186 m (AMSL)
19 DME MX 109.70 MHz 18 nm / 33 km - - - 592 ft / 180 m (AMSL)

Map

Weather


0- 5 10 15 20 25 30 35+ Temperature / ° C

Clouds and Precipitation
Forecast for 2017-12-16 06:00 UTC. Updated 2 hours ago

Ground ~20,000 ft ~40,000 ft Winds

METAR

ESMX 160650Z AUTO 19005KT 9000 BR OVC004/// 00/M00 Q0995

TAF

Not found

Frequencies

Tower 118.15 MHz TWR
Warning: Do not use this data for real-world aviation or navigation. No guarantee of current accuracy is given.